Latest Coastal Weather Observations for Marion Reef

IDQ60701

Issued at 1:34 am EST Monday 23 October 2017 (issued every 10 minutes, with the page automatically refreshed every 10 minutes)

About coastal observations | Map of coastal stations | Coastal observations for QLD | Marine services | Other Formats
Station Details ID: 200704 Name: MARION REEF Lat: -19.10 Lon: 152.39 Height: 2.0 m
Data from the previous 72 hours. | See also: Recent months for locations in Queensland
Date/Time
EST
Temp
°C
Wind Pressure Rain since
9am
mm
Weather Cloud Vis
km
Sea
Height
m
Swell
Dir  Spd
kts
Gust
kts
hPa Trend Height
m
Period
s
Dir
23/01:30am 24.5 SE 11 12 1011.2 - - - - - - - - -
23/01:00am 24.6 SSE 11 13 1011.2 - - - - - - - - -
23/12:30am 24.7 SSE 11 12 1011.4 - - - - - - - - -
23/12:00am 24.7 SSE 9 11 1011.5 - - - - - - - - -
 
Date/Time
EST
Temp
°C
Wind Pressure Rain since
9am
mm
Weather Cloud Vis
km
Sea
Height
m
Swell
Dir  Spd
kts
Gust
kts
hPa Trend Height
m
Period
s
Dir
22/11:30pm 24.3 SSE 10 11 1012.0 - - - - - - - - -
22/11:00pm 24.6 SE 9 11 1012.1 - - - - - - - - -
22/10:30pm 24.8 SE 9 11 1012.2 - - - - - - - - -
22/10:00pm 24.4 SE 8 10 1012.1 - - - - - - - - -
22/09:30pm 24.4 SSE 10 11 1012.3 - - - - - - - - -
22/09:00pm 24.3 SSE 11 13 1012.2 - - - - - - - - -
22/08:30pm 24.6 S 12 13 1012.0 - - - - - - - - -
22/08:00pm 24.5 SSE 11 13 1011.6 - - - - - - - - -
22/07:30pm 24.9 S 8 11 1011.6 - - - - - - - - -
22/07:00pm 25.0 S 8 9 1011.2 - - - - - - - - -
22/06:30pm 24.9 S 9 11 1010.9 - - - - - - - - -
22/06:00pm 24.8 S 8 9 1010.7 - - - - - - - - -
22/05:30pm 24.8 S 8 9 1010.4 - - - - - - - - -
22/05:00pm 24.7 S 8 10 1009.9 - - - - - - - - -
22/04:30pm 24.8 S 7 9 1009.8 - - - - - - - - -
22/04:00pm 25.0 S 7 9 1009.6 - - - - - - - - -
22/03:30pm 24.7 S 8 10 1009.4 - - - - - - - - -
22/03:00pm 24.8 S 7 9 1009.2 - - - - - - - - -
22/02:30pm 24.9 S 8 10 1009.4 - - - - - - - - -
22/02:00pm 24.8 S 6 8 1009.3 - - - - - - - - -
22/01:30pm 24.9 S 7 8 1009.5 - - - - - - - - -
22/01:00pm 24.9 S 6 8 1009.8 - - - - - - - - -
22/12:30pm 24.6 S 7 8 1010.1 - - - - - - - - -
22/12:00pm 24.9 S 7 9 1010.3 - - - - - - - - -
22/11:30am 24.9 S 8 9 1010.9 - - - - - - - - -
22/11:00am 24.6 S 7 8 1011.0 - - - - - - - - -
22/10:30am 24.6 S 7 9 1011.4 - - - - - - - - -
22/10:00am 24.3 S 7 8 1011.2 - - - - - - - - -
22/09:30am 24.3 S 6 8 1011.3 - - - - - - - - -
22/09:00am 24.2 SSW 7 8 1011.4 - - - - - - - - -
22/08:30am 24.2 S 1 7 1011.4 - - - - - - - - -
22/08:00am 24.4 CALM 0 4 1011.4 - - - - - - - - -
22/07:30am 24.2 CALM 0 2 1011.3 - - - - - - - - -
22/07:00am 24.1 CALM 0 2 1010.9 - - - - - - - - -
22/06:30am 23.9 S 3 4 1010.6 - - - - - - - - -
22/06:00am 23.8 SSW 4 5 1010.4 - - - - - - - - -
22/05:30am 23.8 SSW 5 6 1010.4 - - - - - - - - -
22/05:00am 24.0 SW 5 5 1010.1 - - - - - - - - -
22/04:30am 24.0 SSW 1 4 1010.1 - - - - - - - - -
22/04:00am 24.0 SSW 1 4 1009.7 - - - - - - - - -
22/03:30am 23.9 S 2 4 1009.5 - - - - - - - - -
22/03:00am 24.0 SE 5 7 1009.3 - - - - - - - - -
22/02:30am 23.8 S 5 6 1009.7 - - - - - - - - -
22/02:00am 24.1 S 5 6 1010.1 - - - - - - - - -
22/01:30am 24.0 SSE 6 7 1010.3 - - - - - - - - -
22/01:00am 24.0 SSE 6 8 1010.5 - - - - - - - - -
22/12:30am 24.2 SSE 5 7 1010.9 - - - - - - - - -
22/12:00am 24.2 SE 8 - 1010.8 - - - - - - - - -
 
Date/Time
EST
Temp
°C
Wind Pressure Rain since
9am
mm
Weather Cloud Vis
km
Sea
Height
m
Swell
Dir  Spd
kts
Gust
kts
hPa Trend Height
m
Period
s
Dir
21/11:30pm 24.2 SSE 7 8 1011.5 - - - - - - - - -
21/11:00pm 24.2 SSE 6 7 1011.7 - - - - - - - - -
21/10:30pm 24.2 S 6 7 1012.0 - - - - - - - - -
21/10:00pm 23.9 SSE 8 11 1012.2 - - - - - - - - -
21/09:30pm 23.7 SSE 11 13 1012.3 - - - - - - - - -
21/09:00pm 23.9 S 10 11 1012.4 - - - - - - - - -
21/08:30pm 24.3 S 11 13 1012.5 - - - - - - - - -
21/08:00pm 24.7 S 4 5 1012.4 - - - - - - - - -
21/07:30pm 24.8 S 3 5 1012.5 - - - - - - - - -
21/07:00pm 25.0 S 4 5 1012.4 - - - - - - - - -
21/06:30pm 25.0 S 4 5 1012.1 - - - - - - - - -
21/06:00pm 24.9 SSW 1 4 1011.7 - - - - - - - - -
21/05:30pm 25.2 S 3 4 1011.4 - - - - - - - - -
21/05:00pm 25.3 S 4 5 1011.0 - - - - - - - - -
21/04:30pm 25.3 S 4 5 1010.9 - - - - - - - - -
21/04:00pm 25.3 SSE 5 6 1010.6 - - - - - - - - -
21/03:30pm 25.3 SSE 5 6 1010.7 - - - - - - - - -
21/03:00pm 25.2 ESE 4 6 1010.7 - - - - - - - - -
21/02:30pm 25.3 SSE 5 6 1011.1 - - - - - - - - -
21/02:00pm 25.3 SSW 5 6 1011.3 - - - - - - - - -
21/01:30pm 25.7 SSE 4 5 1011.6 - - - - - - - - -
21/01:00pm 25.5 SE 5 7 1011.9 - - - - - - - - -
21/12:30pm 25.4 E 6 7 1012.5 - - - - - - - - -
21/12:00pm 25.2 E 6 8 1012.7 - - - - - - - - -
21/11:30am 25.2 E 8 9 1013.2 - - - - - - - - -
21/11:00am 25.2 E 8 10 1013.1 - - - - - - - - -
21/10:30am 25.1 E 8 10 1013.5 - - - - - - - - -
21/10:00am 25.0 E 9 12 1013.3 - - - - - - - - -
21/09:30am 25.2 ESE 10 13 1013.6 - - - - - - - - -
21/09:00am 25.0 ESE 10 11 1013.5 - - - - - - - - -
21/08:30am 25.1 E 10 11 1013.9 - - - - - - - - -
21/08:00am 25.1 ESE 8 9 1013.9 - - - - - - - - -
21/07:30am 24.7 ESE 7 8 1014.2 - - - - - - - - -
21/07:00am 24.6 ESE 8 9 1014.0 - - - - - - - - -
21/06:30am 24.4 E 8 10 1013.7 - - - - - - - - -
21/06:00am 24.4 E 10 11 1013.3 - - - - - - - - -
21/05:30am 24.3 E 10 13 1013.1 - - - - - - - - -
21/05:00am 24.4 E 10 13 1012.7 - - - - - - - - -
21/04:30am 24.4 E 11 13 1012.7 - - - - - - - - -
21/04:00am 24.5 E 11 13 1012.7 - - - - - - - - -
21/03:30am 24.3 E 11 13 1012.8 - - - - - - - - -
21/03:00am 24.4 E 12 15 1012.8 - - - - - - - - -
21/02:30am 24.8 E 13 15 1013.0 - - - - - - - - -
21/02:00am 24.5 E 14 16 1013.0 - - - - - - - - -
21/01:30am 24.3 E 14 16 1013.4 - - - - - - - - -
21/01:00am 24.4 E 14 16 1013.7 - - - - - - - - -
21/12:30am 24.6 E 14 16 1014.1 - - - - - - - - -
21/12:00am 24.4 E 15 18 1014.3 - - - - - - - - -
 
Date/Time
EST
Temp
°C
Wind Pressure Rain since
9am
mm
Weather Cloud Vis
km
Sea
Height
m
Swell
Dir  Spd
kts
Gust
kts
hPa Trend Height
m
Period
s
Dir
20/11:30pm 24.5 E 15 17 1014.9 - - - - - - - - -
20/11:00pm 24.4 ESE 15 18 1015.1 - - - - - - - - -
20/10:30pm 24.4 E 16 19 1015.5 - - - - - - - - -
20/10:00pm 24.6 ESE 16 18 1015.7 - - - - - - - - -
20/09:30pm 24.4 ESE 17 19 1015.8 - - - - - - - - -
20/09:00pm 24.7 ESE 16 19 1015.6 - - - - - - - - -
20/08:30pm 24.5 ESE 16 19 1015.5 - - - - - - - - -
20/08:00pm 24.5 ESE 16 19 1015.3 - - - - - - - - -
20/07:30pm 24.7 SE 15 17 1015.3 - - - - - - - - -
20/07:00pm 24.7 SE 15 18 1015.1 - - - - - - - - -
20/06:30pm 24.8 SE 17 20 1014.8 - - - - - - - - -
20/06:00pm 24.8 ESE 17 19 1014.5 - - - - - - - - -
20/05:30pm 24.8 ESE 16 19 1014.3 - - - - - - - - -
20/05:00pm 25.0 ESE 16 19 1014.2 - - - - - - - - -
20/04:30pm 25.0 ESE 16 18 1014.2 - - - - - - - - -
20/04:00pm 24.9 ESE 15 18 1013.9 - - - - - - - - -
20/03:30pm 24.9 ESE 14 17 1014.0 - - - - - - - - -
20/03:00pm 24.8 ESE 15 17 1014.0 - - - - - - - - -
20/02:30pm 24.7 ESE 14 17 1014.4 - - - - - - - - -
20/02:00pm 24.9 ESE 16 18 1014.5 - - - - - - - - -
20/01:30pm 25.0 ESE 15 17 1015.0 - - - - - - - - -
20/01:00pm 25.1 ESE 15 19 1015.2 - - - - - - - - -
20/12:30pm 25.0 ESE 16 19 1015.8 - - - - - - - - -
20/12:00pm 25.0 ESE 17 19 1015.9 - - - - - - - - -
20/11:30am 24.7 ESE 16 19 1016.3 - - - - - - - - -
20/11:00am 25.0 ESE 16 19 1016.4 - - - - - - - - -
20/10:30am 24.9 ESE 17 20 1016.8 - - - - - - - - -
20/10:00am 24.8 ESE 17 20 1016.9 - - - - - - - - -
20/09:30am 24.8 ESE 17 19 1017.2 - - - - - - - - -
20/09:00am 24.8 SE 17 20 1017.1 - - - - - - - - -
20/08:30am 24.7 ESE 18 20 1017.2 - - - - - - - - -
20/08:00am 24.8 ESE 18 21 1016.9 - - - - - - - - -
20/07:30am 24.8 ESE 18 21 1016.8 - - - - - - - - -
20/07:00am 24.5 ESE 19 22 1016.4 - - - - - - - - -
20/06:30am 24.7 ESE 20 23 1016.1 - - - - - - - - -
20/06:00am 24.4 SE 21 24 1015.6 - - - - - - - - -
20/05:30am 24.9 ESE 21 25 1015.2 - - - - - - - - -
20/05:00am 24.4 ESE 21 24 1014.9 - - - - - - - - -
20/04:30am 24.7 ESE 22 25 1014.6 - - - - - - - - -
20/04:00am 24.6 ESE 22 26 1014.2 - - - - - - - - -
20/03:30am 24.4 ESE 22 25 1014.2 - - - - - - - - -
20/03:00am 24.6 SE 23 26 1014.2 - - - - - - - - -
20/02:30am 24.4 SE 23 27 1014.5 - - - - - - - - -
20/02:00am 24.5 SE 22 26 1014.6 - - - - - - - - -

Other Formats:

Comma delimited format used in spreadsheet applications
http://www.bom.gov.au/fwo/IDQ60701/IDQ60701.94298.axf

JavaScript Object Notation format (JSON) in row-major order
http://www.bom.gov.au/fwo/IDQ60701/IDQ60701.94298.json